createdAt,value
2024-04-23T00:00:14.038Z,90.30
2024-04-23T00:02:42.108Z,90.10
2024-04-23T00:05:12.533Z,90.15
2024-04-23T00:07:40.342Z,89.97
2024-04-23T00:10:11.380Z,89.96
2024-04-23T00:12:39.156Z,89.84
2024-04-23T00:15:12.508Z,91.04
2024-04-23T00:17:40.374Z,92.33
2024-04-23T00:20:12.037Z,93.17
2024-04-23T00:22:42.485Z,92.61
2024-04-23T00:25:10.388Z,92.92
2024-04-23T00:27:40.904Z,92.40
2024-04-23T00:30:12.310Z,91.56
2024-04-23T00:32:42.966Z,91.14
2024-04-23T00:35:10.839Z,91.58
2024-04-23T00:37:41.330Z,92.02
2024-04-23T00:40:10.536Z,91.79
2024-04-23T00:42:40.970Z,91.43
2024-04-23T00:45:15.776Z,90.56
2024-04-23T00:47:46.470Z,90.63
2024-04-23T00:50:14.445Z,90.12
2024-04-23T00:52:45.259Z,91.17
2024-04-23T00:55:14.471Z,91.77
2024-04-23T00:57:45.351Z,91.94
2024-04-23T01:00:16.519Z,92.22
2024-04-23T01:02:47.762Z,91.60
2024-04-23T01:05:15.660Z,90.71
2024-04-23T01:07:46.107Z,91.65
2024-04-23T01:10:14.143Z,91.71
2024-04-23T01:12:44.821Z,92.54
2024-04-23T01:15:16.875Z,93.53
2024-04-23T01:17:51.265Z,92.55
2024-04-23T01:20:21.446Z,92.64
2024-04-23T01:23:07.571Z,91.99
2024-04-23T01:25:38.981Z,92.80
2024-04-23T01:28:13.033Z,92.57
2024-04-23T01:30:42.245Z,91.80
2024-04-23T01:33:15.534Z,93.31
2024-04-23T01:35:45.583Z,92.04
2024-04-23T01:38:17.214Z,92.36
2024-04-23T01:40:45.768Z,91.96
2024-04-23T01:43:19.245Z,93.00
2024-04-23T01:45:47.459Z,91.80
2024-04-23T01:48:18.641Z,91.17
2024-04-23T01:50:47.215Z,90.77
2024-04-23T01:53:17.937Z,91.56
2024-04-23T01:55:46.012Z,92.53
2024-04-23T01:58:19.482Z,91.73
2024-04-23T02:00:48.138Z,91.37
2024-04-23T02:03:21.239Z,90.80
2024-04-23T02:05:51.493Z,90.23
2024-04-23T02:08:22.139Z,90.86
2024-04-23T02:10:50.125Z,91.04
2024-04-23T02:13:23.271Z,90.77
2024-04-23T02:15:51.162Z,91.16
2024-04-23T02:18:21.977Z,91.73
2024-04-23T02:20:49.803Z,92.38
2024-04-23T02:23:20.345Z,93.40
2024-04-23T02:25:48.143Z,93.02
2024-04-23T02:28:18.920Z,92.06
2024-04-23T02:30:49.431Z,90.98
2024-04-23T02:33:20.019Z,90.39
2024-04-23T02:35:47.983Z,91.83
2024-04-23T02:38:18.539Z,91.61
2024-04-23T02:40:46.566Z,91.32
2024-04-23T02:43:16.995Z,91.70
2024-04-23T02:45:44.928Z,92.54
2024-04-23T02:48:18.283Z,91.52
2024-04-23T02:50:46.365Z,91.31
2024-04-23T02:53:16.986Z,92.64
2024-04-23T02:55:44.778Z,92.67
2024-04-23T02:58:15.207Z,93.00
2024-04-23T03:00:43.021Z,91.86
2024-04-23T03:03:13.756Z,91.84
2024-04-23T03:05:44.909Z,91.38
2024-04-23T03:08:15.518Z,91.10
2024-04-23T03:10:43.413Z,90.81
2024-04-23T03:13:13.907Z,93.54
2024-04-23T03:15:41.792Z,94.83
2024-04-23T03:18:12.443Z,94.04
2024-04-23T03:20:40.304Z,94.32
2024-04-23T03:23:13.352Z,93.60
2024-04-23T03:25:41.248Z,92.24
2024-04-23T03:28:11.803Z,92.07
2024-04-23T03:30:39.717Z,91.90
2024-04-23T03:33:10.471Z,91.77
2024-04-23T03:35:38.511Z,91.75
2024-04-23T03:38:09.347Z,92.14
2024-04-23T03:40:42.461Z,94.13
2024-04-23T03:43:13.046Z,94.27
2024-04-23T03:45:43.455Z,93.28
2024-04-23T03:48:16.455Z,92.53
2024-04-23T03:50:44.430Z,91.77
2024-04-23T03:53:14.923Z,91.76
2024-04-23T03:55:45.516Z,93.32
2024-04-23T03:58:15.959Z,93.81
2024-04-23T04:00:43.875Z,95.15
2024-04-23T04:03:30.158Z,94.10
2024-04-23T04:06:09.500Z,93.33
2024-04-23T04:08:42.619Z,92.38
2024-04-23T04:11:16.245Z,91.52
2024-04-23T04:13:47.049Z,91.48
2024-04-23T04:16:14.949Z,91.16
2024-04-23T04:18:45.929Z,90.82
2024-04-23T04:21:14.009Z,90.92
2024-04-23T04:23:44.887Z,90.73
2024-04-23T04:26:16.491Z,90.19
2024-04-23T04:28:47.246Z,90.29
2024-04-23T04:31:15.200Z,90.74
2024-04-23T04:33:45.820Z,91.38
2024-04-23T04:36:14.034Z,92.53
2024-04-23T04:38:44.558Z,92.46
2024-04-23T04:41:15.502Z,94.25
2024-04-23T04:43:46.056Z,94.00
2024-04-23T04:46:15.698Z,93.45
2024-04-23T04:48:52.906Z,93.76
2024-04-23T04:51:21.647Z,94.11
2024-04-23T04:53:52.064Z,94.64
2024-04-23T04:56:25.236Z,96.86
2024-04-23T04:58:53.100Z,96.85
2024-04-23T05:01:23.566Z,97.18
2024-04-23T05:03:51.359Z,97.52
2024-04-23T05:06:23.329Z,98.48
2024-04-23T05:08:52.289Z,99.16
2024-04-23T05:11:25.626Z,99.87
2024-04-23T05:13:53.578Z,99.65
2024-04-23T05:16:24.249Z,100.00
2024-04-23T05:18:52.333Z,100.00
2024-04-23T05:21:22.858Z,100.00
2024-04-23T05:23:50.679Z,100.00
2024-04-23T05:26:21.181Z,100.00
2024-04-23T05:28:51.793Z,100.00
2024-04-23T05:31:38.121Z,100.00
2024-04-23T05:34:08.561Z,100.00
2024-04-23T05:36:38.996Z,100.00
2024-04-23T05:39:10.243Z,100.00
2024-04-23T05:41:40.863Z,100.00
2024-04-23T05:44:14.073Z,100.00
2024-04-23T05:46:44.595Z,100.00
2024-04-23T05:50:11.459Z,100.00
2024-04-23T05:53:58.831Z,100.00
2024-04-23T05:56:47.705Z,100.00
2024-04-23T05:59:18.237Z,100.00
2024-04-23T06:01:48.924Z,100.00
2024-04-23T06:04:16.809Z,100.00
2024-04-23T06:06:47.322Z,100.00
2024-04-23T06:09:15.359Z,100.00
2024-04-23T06:11:46.085Z,100.00
2024-04-23T06:14:14.026Z,100.00
2024-04-23T06:16:47.513Z,100.00
2024-04-23T06:19:33.965Z,100.00
2024-04-23T06:22:04.496Z,100.00
2024-04-23T06:24:32.351Z,100.00
2024-04-23T06:27:02.894Z,100.00
2024-04-23T06:29:30.869Z,100.00
2024-04-23T06:32:04.203Z,100.00
2024-04-23T06:34:32.097Z,100.00
2024-04-23T06:37:02.568Z,100.00
2024-04-23T06:39:30.473Z,100.00
2024-04-23T06:42:01.090Z,100.00
2024-04-23T06:44:29.005Z,100.00
2024-04-23T06:46:59.735Z,100.00
2024-04-23T06:49:30.345Z,100.00
2024-04-23T06:52:01.364Z,100.00
2024-04-23T06:54:29.239Z,99.88
2024-04-23T06:56:59.958Z,99.58
2024-04-23T06:59:30.531Z,97.13
2024-04-23T07:01:58.445Z,94.12
2024-04-23T07:04:29.131Z,93.74
2024-04-23T07:07:01.982Z,91.98
2024-04-23T07:09:32.537Z,90.88
2024-04-23T07:12:03.040Z,82.32
2024-04-23T07:14:33.513Z,84.24
2024-04-23T07:17:01.475Z,77.80
2024-04-23T07:19:32.028Z,76.66
2024-04-23T07:22:02.535Z,73.75
2024-04-23T07:24:33.050Z,71.21
2024-04-23T07:27:00.933Z,70.43
2024-04-23T07:29:31.554Z,69.27
2024-04-23T07:31:59.712Z,66.39
2024-04-23T07:34:30.315Z,64.66
2024-04-23T07:36:58.255Z,66.27
2024-04-23T07:39:31.424Z,63.29
2024-04-23T07:42:01.957Z,61.17
2024-04-23T07:44:29.944Z,59.60
2024-04-23T07:47:00.583Z,59.46
2024-04-23T07:49:28.468Z,61.04
2024-04-23T07:51:59.027Z,60.79
2024-04-23T07:54:29.581Z,61.55
2024-04-23T07:57:00.157Z,57.60
2024-04-23T07:59:28.022Z,56.77
2024-04-23T08:01:58.700Z,59.50
2024-04-23T08:04:26.584Z,56.96
2024-04-23T08:06:57.032Z,57.50
2024-04-23T08:09:24.935Z,57.23
2024-04-23T08:11:58.275Z,57.30
2024-04-23T08:14:26.178Z,55.24
2024-04-23T08:16:56.753Z,55.71
2024-04-23T08:19:24.807Z,54.58
2024-04-23T08:21:55.363Z,54.70
2024-04-23T08:24:23.253Z,53.09
2024-04-23T08:26:53.768Z,51.91
2024-04-23T08:29:24.306Z,49.07
2024-04-23T08:31:54.903Z,49.57
2024-04-23T08:34:23.733Z,48.89
2024-04-23T08:36:55.933Z,47.08
2024-04-23T08:39:26.436Z,47.50
2024-04-23T08:41:57.332Z,48.72
2024-04-23T08:44:34.534Z,45.98
2024-04-23T08:47:02.532Z,46.48
2024-04-23T08:49:33.681Z,47.63
2024-04-23T08:52:01.815Z,45.84
2024-04-23T08:54:32.503Z,46.07
2024-04-23T08:57:01.577Z,44.97
2024-04-23T08:59:36.661Z,43.26
2024-04-23T09:02:06.168Z,42.64
2024-04-23T09:04:37.710Z,45.91
2024-04-23T09:07:06.317Z,47.34
2024-04-23T09:09:37.976Z,47.39
2024-04-23T09:12:07.845Z,44.93
2024-04-23T09:14:45.164Z,43.77
2024-04-23T09:17:13.360Z,42.56
2024-04-23T09:19:44.635Z,41.91
2024-04-23T09:22:13.342Z,41.22
2024-04-23T09:24:43.913Z,39.92
2024-04-23T09:27:12.548Z,41.02
2024-04-23T09:29:45.715Z,40.47
2024-04-23T09:32:18.955Z,39.99
2024-04-23T09:34:58.421Z,40.78
2024-04-23T09:37:26.358Z,41.28
2024-04-23T09:40:05.412Z,41.97
2024-04-23T09:42:35.807Z,41.33
2024-04-23T09:45:10.463Z,40.17
2024-04-23T09:47:41.270Z,41.50
2024-04-23T09:50:13.368Z,42.49
2024-04-23T09:52:41.281Z,40.21
2024-04-23T09:55:11.828Z,39.22
2024-04-23T09:57:39.803Z,39.21
2024-04-23T10:00:14.945Z,40.05
2024-04-23T10:02:47.990Z,37.74
2024-04-23T10:05:29.886Z,37.25
2024-04-23T10:08:09.996Z,39.74
2024-04-23T10:10:49.140Z,40.17
2024-04-23T10:13:23.253Z,38.22
2024-04-23T10:16:00.635Z,36.99
2024-04-23T10:18:36.376Z,37.68
2024-04-23T10:21:12.961Z,38.28
2024-04-23T10:23:43.220Z,38.74
2024-04-23T10:26:15.486Z,38.75
2024-04-23T10:28:44.709Z,39.28
2024-04-23T10:31:18.448Z,39.33
2024-04-23T10:33:49.800Z,39.26
2024-04-23T10:36:23.289Z,39.23
2024-04-23T10:38:52.566Z,38.75
2024-04-23T10:41:25.658Z,38.87
2024-04-23T10:43:58.690Z,38.79
2024-04-23T10:46:30.031Z,36.75
2024-04-23T10:49:00.999Z,33.85
2024-04-23T10:51:29.116Z,34.98
2024-04-23T10:54:01.204Z,36.80
2024-04-23T10:56:30.668Z,35.20
2024-04-23T10:59:06.565Z,33.53
2024-04-23T11:01:47.725Z,33.64
2024-04-23T11:04:20.059Z,33.33
2024-04-23T11:06:49.479Z,32.12
2024-04-23T11:09:25.528Z,33.79
2024-04-23T11:11:57.677Z,33.10
2024-04-23T11:14:40.594Z,32.02
2024-04-23T11:17:11.301Z,31.80
2024-04-23T11:19:43.694Z,31.92
2024-04-23T11:22:15.032Z,34.45
2024-04-23T11:24:47.722Z,33.81
2024-04-23T11:27:16.732Z,33.10
2024-04-23T11:29:50.029Z,33.43
2024-04-23T11:32:21.325Z,33.60
2024-04-23T11:34:53.104Z,34.85
2024-04-23T11:37:25.489Z,33.92
2024-04-23T11:40:00.499Z,35.03
2024-04-23T11:42:29.349Z,35.30
2024-04-23T11:45:01.095Z,34.31
2024-04-23T11:47:33.056Z,37.00
2024-04-23T11:50:08.497Z,34.71
2024-04-23T11:52:37.370Z,37.76
2024-04-23T11:55:10.551Z,35.15
2024-04-23T11:57:40.162Z,33.06
2024-04-23T12:00:11.868Z,34.12
2024-04-23T12:02:42.756Z,34.12
2024-04-23T12:05:15.810Z,33.22
2024-04-23T12:07:44.214Z,32.07
2024-04-23T12:10:33.766Z,34.86
2024-04-23T12:13:04.470Z,31.61
2024-04-23T12:15:36.429Z,32.26
2024-04-23T12:18:07.664Z,32.77
2024-04-23T12:20:40.427Z,31.35
2024-04-23T12:23:13.159Z,31.41
2024-04-23T12:25:45.256Z,31.82
2024-04-23T12:28:13.908Z,30.83
2024-04-23T12:30:45.246Z,32.92
2024-04-23T12:33:16.609Z,31.45
2024-04-23T12:35:47.761Z,30.18
2024-04-23T12:38:15.858Z,30.22
2024-04-23T12:40:46.709Z,28.70
2024-04-23T12:43:15.536Z,28.35
2024-04-23T12:45:47.398Z,28.44
2024-04-23T12:48:18.400Z,26.85
2024-04-23T12:50:51.270Z,27.24
2024-04-23T12:53:24.281Z,27.54
2024-04-23T12:55:53.116Z,29.86
2024-04-23T12:58:23.957Z,31.40
2024-04-23T13:00:51.973Z,30.56
2024-04-23T13:03:26.427Z,31.52
2024-04-23T13:05:56.114Z,30.90
2024-04-23T13:08:29.710Z,32.26
2024-04-23T13:10:58.466Z,31.92
2024-04-23T13:13:29.727Z,32.08
2024-04-23T13:15:58.009Z,31.56
2024-04-23T13:18:31.263Z,32.89
2024-04-23T13:21:00.936Z,33.42
2024-04-23T13:23:31.641Z,31.90
2024-04-23T13:25:59.588Z,34.54
2024-04-23T13:28:30.163Z,34.45
2024-04-23T13:30:58.333Z,30.73
2024-04-23T13:33:31.598Z,29.63
2024-04-23T13:36:01.636Z,29.39
2024-04-23T13:38:32.200Z,27.34
2024-04-23T13:41:00.020Z,26.46
2024-04-23T13:43:30.538Z,26.94
2024-04-23T13:45:58.787Z,26.61
2024-04-23T13:48:32.024Z,25.96
2024-04-23T13:51:00.066Z,25.12
2024-04-23T13:53:30.493Z,25.53
2024-04-23T13:55:58.631Z,24.22
2024-04-23T13:58:30.449Z,22.56
2024-04-23T14:00:59.597Z,20.97
2024-04-23T14:03:32.687Z,20.14
2024-04-23T14:06:04.359Z,20.44
2024-04-23T14:08:35.170Z,20.15
2024-04-23T14:11:03.412Z,22.13
2024-04-23T14:13:36.602Z,22.54
2024-04-23T14:16:11.566Z,23.00
2024-04-23T14:18:45.111Z,24.52
2024-04-23T14:21:15.709Z,24.48
2024-04-23T14:23:47.034Z,25.05
2024-04-23T14:26:18.945Z,26.94
2024-04-23T14:28:47.041Z,26.34
2024-04-23T14:31:17.628Z,27.65
2024-04-23T14:33:48.137Z,27.36
2024-04-23T14:36:18.795Z,27.82
2024-04-23T14:38:47.511Z,27.36
2024-04-23T14:41:19.414Z,28.83
2024-04-23T14:43:50.848Z,28.26
2024-04-23T14:46:22.978Z,28.08
2024-04-23T14:48:54.847Z,29.37
2024-04-23T14:51:25.443Z,30.75
2024-04-23T14:53:53.674Z,30.15
2024-04-23T14:56:25.480Z,31.26
2024-04-23T14:58:53.898Z,31.01
2024-04-23T15:01:25.950Z,32.00
2024-04-23T15:03:57.054Z,30.93
2024-04-23T15:06:28.515Z,31.58
2024-04-23T15:09:00.744Z,32.08
2024-04-23T15:11:31.519Z,31.78
2024-04-23T15:13:59.690Z,31.81
2024-04-23T15:16:30.256Z,32.03
2024-04-23T15:19:02.062Z,32.28
2024-04-23T15:21:32.754Z,32.21
2024-04-23T15:24:00.586Z,32.77
2024-04-23T15:26:31.202Z,33.27
2024-04-23T15:29:01.852Z,32.95
2024-04-23T15:31:29.739Z,33.14
2024-04-23T15:34:03.033Z,32.68
2024-04-23T15:36:31.789Z,32.36
2024-04-23T15:39:04.650Z,34.24
2024-04-23T15:41:32.609Z,33.77
2024-04-23T15:44:03.160Z,34.02
2024-04-23T15:46:31.164Z,33.80
2024-04-23T15:49:04.366Z,34.81
2024-04-23T15:51:32.304Z,34.10
2024-04-23T15:54:02.744Z,35.99
2024-04-23T15:56:30.571Z,35.44
2024-04-23T15:59:01.230Z,35.75
2024-04-23T16:01:29.370Z,34.88
2024-04-23T16:03:59.861Z,35.22
2024-04-23T16:06:32.148Z,36.00
2024-04-23T16:09:03.172Z,36.08
2024-04-23T16:11:31.186Z,36.60
2024-04-23T16:14:01.925Z,36.36
2024-04-23T16:16:29.893Z,36.11
2024-04-23T16:19:00.523Z,36.70
2024-04-23T16:21:31.310Z,36.67
2024-04-23T16:24:01.917Z,37.07
2024-04-23T16:26:29.862Z,36.32
2024-04-23T16:29:00.556Z,36.74
2024-04-23T16:31:28.552Z,36.81
2024-04-23T16:33:59.118Z,36.97
2024-04-23T16:36:28.473Z,37.76
2024-04-23T16:39:04.619Z,36.61
2024-04-23T16:41:38.063Z,37.52
2024-04-23T16:44:22.797Z,37.83
2024-04-23T16:46:54.032Z,37.94
2024-04-23T16:49:27.598Z,38.33
2024-04-23T16:51:57.908Z,38.06
2024-04-23T16:54:43.194Z,38.33
2024-04-23T16:57:18.033Z,38.11
2024-04-23T16:59:51.834Z,38.20
2024-04-23T17:02:22.823Z,38.79
2024-04-23T17:04:59.840Z,38.38
2024-04-23T17:07:35.707Z,38.53
2024-04-23T17:10:12.716Z,38.37
2024-04-23T17:12:42.443Z,38.58
2024-04-23T17:19:45.856Z,39.08
2024-04-23T17:22:14.855Z,39.50
2024-04-23T17:24:47.459Z,39.35
2024-04-23T17:27:19.616Z,39.60
2024-04-23T17:29:50.906Z,39.44
2024-04-23T17:32:19.433Z,39.88
2024-04-23T17:35:44.018Z,40.42
2024-04-23T17:38:20.999Z,40.99
2024-04-23T17:40:59.450Z,40.16
2024-04-23T17:43:40.395Z,40.27
2024-04-23T17:46:14.737Z,40.43
2024-04-23T17:48:44.641Z,40.35
2024-04-23T17:51:20.926Z,40.54
2024-04-23T17:53:53.619Z,40.71
2024-04-23T17:56:27.746Z,41.86
2024-04-23T17:59:01.059Z,41.42
2024-04-23T18:01:35.228Z,41.68
2024-04-23T18:04:10.864Z,42.07
2024-04-23T18:06:44.030Z,43.39
2024-04-23T18:09:14.789Z,43.99
2024-04-23T18:11:49.026Z,43.53
2024-04-23T18:14:23.357Z,43.15
2024-04-23T18:16:57.120Z,44.34
2024-04-23T18:19:28.292Z,44.89
2024-04-23T18:22:02.592Z,45.78
2024-04-23T18:24:33.127Z,45.80
2024-04-23T18:27:06.225Z,47.01
2024-04-23T18:29:39.733Z,47.62
2024-04-23T18:32:14.552Z,48.74
2024-04-23T18:34:45.151Z,50.35
2024-04-23T18:37:18.792Z,50.40
2024-04-23T18:39:49.755Z,50.43
2024-04-23T18:42:22.805Z,50.97
2024-04-23T18:45:20.320Z,52.07
2024-04-23T18:47:51.071Z,53.83
2024-04-23T18:50:19.437Z,53.99
2024-04-23T18:52:51.067Z,54.11
2024-04-23T18:55:30.024Z,53.49
2024-04-23T18:57:58.496Z,53.51
2024-04-23T19:00:32.248Z,55.93
2024-04-23T19:03:01.956Z,56.12
2024-04-23T19:05:33.578Z,57.70
2024-04-23T19:08:02.035Z,58.38
2024-04-23T19:10:32.872Z,58.35
2024-04-23T19:13:01.169Z,60.49
2024-04-23T19:15:35.129Z,60.95
2024-04-23T19:18:03.546Z,61.78
2024-04-23T19:20:34.651Z,61.81
2024-04-23T19:23:02.721Z,62.20
2024-04-23T19:25:33.986Z,62.28
2024-04-23T19:28:03.495Z,61.43
2024-04-23T19:30:36.836Z,61.81
2024-04-23T19:33:08.958Z,62.08
2024-04-23T19:35:39.716Z,63.04
2024-04-23T19:38:07.876Z,62.72
2024-04-23T19:40:38.480Z,61.62
2024-04-23T19:43:07.558Z,61.21
2024-04-23T19:45:43.403Z,63.21
2024-04-23T19:48:11.453Z,64.88
2024-04-23T19:50:43.105Z,66.12
2024-04-23T19:53:11.081Z,66.79
2024-04-23T19:55:41.732Z,68.00
2024-04-23T19:58:30.165Z,68.45
2024-04-23T20:01:06.936Z,68.21
2024-04-23T20:03:37.686Z,67.29
2024-04-23T20:06:19.743Z,66.68
2024-04-23T20:08:50.309Z,65.96
2024-04-23T20:11:21.134Z,65.60
2024-04-23T20:13:51.805Z,66.54
2024-04-23T20:16:29.147Z,65.24
2024-04-23T20:18:59.890Z,65.82
2024-04-23T20:21:30.559Z,66.97
2024-04-23T20:24:02.746Z,65.87
2024-04-23T20:26:33.707Z,67.77
2024-04-23T20:29:05.149Z,68.76
2024-04-23T20:31:41.750Z,67.72
2024-04-23T20:34:13.053Z,68.44
2024-04-23T20:37:09.857Z,71.09
2024-04-23T20:39:40.854Z,74.33
2024-04-23T20:42:11.767Z,74.01
2024-04-23T20:44:42.511Z,73.03
2024-04-23T20:47:16.206Z,73.14
2024-04-23T20:49:46.809Z,75.44
2024-04-23T20:52:17.524Z,74.73
2024-04-23T20:54:48.152Z,73.26
2024-04-23T20:57:18.860Z,72.91
2024-04-23T20:59:46.782Z,72.25
2024-04-23T21:02:20.163Z,72.47
2024-04-23T21:04:50.953Z,73.55
2024-04-23T21:07:21.891Z,75.44
2024-04-23T21:09:53.411Z,76.25
2024-04-23T21:12:26.175Z,76.96
2024-04-23T21:15:03.494Z,76.70
2024-04-23T21:17:36.971Z,75.51
2024-04-23T21:20:12.213Z,75.56
2024-04-23T21:22:42.826Z,74.73
2024-04-23T21:25:13.435Z,74.40
2024-04-23T21:27:44.191Z,74.19
2024-04-23T21:30:15.303Z,73.50
2024-04-23T21:32:50.663Z,75.13
2024-04-23T21:35:21.606Z,76.26
2024-04-23T21:37:52.272Z,73.54
2024-04-23T21:40:22.990Z,74.18
2024-04-23T21:42:53.814Z,75.25
2024-04-23T21:45:24.618Z,74.05
2024-04-23T21:47:58.208Z,73.64
2024-04-23T21:50:28.886Z,77.47
2024-04-23T21:53:02.623Z,76.59
2024-04-23T21:55:33.212Z,79.35
2024-04-23T21:58:03.793Z,81.21
2024-04-23T22:00:34.423Z,83.25
2024-04-23T22:03:08.597Z,84.78
2024-04-23T22:05:39.726Z,83.67
2024-04-23T22:08:10.667Z,83.90
2024-04-23T22:10:41.353Z,83.84
2024-04-23T22:13:13.101Z,83.23
2024-04-23T22:15:44.502Z,82.70
2024-04-23T22:18:18.039Z,83.25
2024-04-23T22:20:48.810Z,84.21
2024-04-23T22:23:19.624Z,85.59
2024-04-23T22:25:50.501Z,86.66
2024-04-23T22:28:22.208Z,86.92
2024-04-23T22:30:52.890Z,86.61
2024-04-23T22:33:26.227Z,86.48
2024-04-23T22:35:56.902Z,87.59
2024-04-23T22:38:27.651Z,88.91
2024-04-23T22:40:59.041Z,89.26
2024-04-23T22:43:29.918Z,88.44
2024-04-23T22:46:00.578Z,87.16
2024-04-23T22:48:37.680Z,85.02
2024-04-23T22:51:08.735Z,84.25
2024-04-23T22:53:39.519Z,86.14
2024-04-23T22:56:10.605Z,90.31
2024-04-23T22:58:41.325Z,91.30
2024-04-23T23:01:12.103Z,90.30
2024-04-23T23:03:45.467Z,90.15
2024-04-23T23:06:16.120Z,89.50
2024-04-23T23:08:46.726Z,88.34
2024-04-23T23:11:17.436Z,87.80
2024-04-23T23:13:48.363Z,87.99
2024-04-23T23:16:19.111Z,86.89
2024-04-23T23:18:52.589Z,86.82
2024-04-23T23:21:23.221Z,86.53
2024-04-23T23:23:54.100Z,87.37
2024-04-23T23:26:24.798Z,90.24
2024-04-23T23:28:57.132Z,91.57
2024-04-23T23:31:27.832Z,91.35
2024-04-23T23:34:01.156Z,91.48
2024-04-23T23:36:31.805Z,92.40
2024-04-23T23:39:03.888Z,92.57
2024-04-23T23:41:34.510Z,92.67
2024-04-23T23:44:05.189Z,91.15
2024-04-23T23:46:38.270Z,92.60
2024-04-23T23:49:11.891Z,92.82
2024-04-23T23:51:42.667Z,94.30
2024-04-23T23:54:11.904Z,93.81
2024-04-23T23:56:42.528Z,95.59
2024-04-23T23:59:13.197Z,95.17
